sensor_id;sensor_type;location;lat;lon;timestamp;P1;durP1;ratioP1;P2;durP2;ratioP2
21591;SDS011;10958;50.892;3.992;2022-12-18T00:05:01;78.38;;;36.60;;
21591;SDS011;10958;50.892;3.992;2022-12-18T00:10:20;75.70;;;35.92;;
21591;SDS011;10958;50.892;3.992;2022-12-18T00:13:39;78.82;;;34.70;;
21591;SDS011;10958;50.892;3.992;2022-12-18T00:16:17;75.93;;;35.05;;
21591;SDS011;10958;50.892;3.992;2022-12-18T00:18:55;74.80;;;34.78;;
21591;SDS011;10958;50.892;3.992;2022-12-18T00:21:45;70.28;;;33.50;;
21591;SDS011;10958;50.892;3.992;2022-12-18T00:24:15;75.15;;;34.63;;
21591;SDS011;10958;50.892;3.992;2022-12-18T00:26:54;56.45;;;26.92;;
21591;SDS011;10958;50.892;3.992;2022-12-18T00:29:23;75.93;;;33.42;;
21591;SDS011;10958;50.892;3.992;2022-12-18T00:32:04;75.03;;;32.72;;
21591;SDS011;10958;50.892;3.992;2022-12-18T00:34:40;72.55;;;32.40;;
21591;SDS011;10958;50.892;3.992;2022-12-18T00:39:49;63.97;;;32.13;;
21591;SDS011;10958;50.892;3.992;2022-12-18T00:42:26;63.25;;;30.33;;
21591;SDS011;10958;50.892;3.992;2022-12-18T00:45:17;68.82;;;31.20;;
21591;SDS011;10958;50.892;3.992;2022-12-18T00:47:43;66.70;;;30.77;;
21591;SDS011;10958;50.892;3.992;2022-12-18T00:50:25;63.38;;;29.77;;
21591;SDS011;10958;50.892;3.992;2022-12-18T00:52:52;62.83;;;28.73;;
21591;SDS011;10958;50.892;3.992;2022-12-18T00:55:19;61.35;;;28.80;;
21591;SDS011;10958;50.892;3.992;2022-12-18T01:01:18;62.80;;;30.67;;
21591;SDS011;10958;50.892;3.992;2022-12-18T01:03:48;61.95;;;29.15;;
21591;SDS011;10958;50.892;3.992;2022-12-18T01:09:26;63.22;;;29.15;;
21591;SDS011;10958;50.892;3.992;2022-12-18T01:12:20;57.67;;;26.98;;
21591;SDS011;10958;50.892;3.992;2022-12-18T01:14:59;60.65;;;26.95;;
21591;SDS011;10958;50.892;3.992;2022-12-18T01:22:49;63.50;;;26.23;;
21591;SDS011;10958;50.892;3.992;2022-12-18T01:26:03;57.33;;;26.35;;
21591;SDS011;10958;50.892;3.992;2022-12-18T01:28:15;58.97;;;25.30;;
21591;SDS011;10958;50.892;3.992;2022-12-18T01:30:41;52.53;;;24.40;;
21591;SDS011;10958;50.892;3.992;2022-12-18T01:33:07;52.95;;;24.52;;
21591;SDS011;10958;50.892;3.992;2022-12-18T01:36:08;53.63;;;24.52;;
21591;SDS011;10958;50.892;3.992;2022-12-18T01:38:50;51.88;;;24.52;;
21591;SDS011;10958;50.892;3.992;2022-12-18T01:41:36;53.58;;;24.67;;
21591;SDS011;10958;50.892;3.992;2022-12-18T01:49:50;48.35;;;23.08;;
21591;SDS011;10958;50.892;3.992;2022-12-18T01:52:17;49.60;;;24.77;;
21591;SDS011;10958;50.892;3.992;2022-12-18T01:54:48;51.50;;;25.15;;
21591;SDS011;10958;50.892;3.992;2022-12-18T01:57:14;46.10;;;24.33;;
21591;SDS011;10958;50.892;3.992;2022-12-18T01:59:47;43.92;;;23.13;;
21591;SDS011;10958;50.892;3.992;2022-12-18T02:02:24;48.72;;;23.20;;
21591;SDS011;10958;50.892;3.992;2022-12-18T02:05:02;47.40;;;23.27;;
21591;SDS011;10958;50.892;3.992;2022-12-18T02:14:14;48.88;;;22.98;;
21591;SDS011;10958;50.892;3.992;2022-12-18T02:22:14;46.42;;;21.55;;
21591;SDS011;10958;50.892;3.992;2022-12-18T02:38:53;55.75;;;24.58;;
21591;SDS011;10958;50.892;3.992;2022-12-18T02:41:46;51.80;;;23.50;;
21591;SDS011;10958;50.892;3.992;2022-12-18T02:44:23;53.10;;;24.85;;
21591;SDS011;10958;50.892;3.992;2022-12-18T02:47:08;49.97;;;23.42;;
21591;SDS011;10958;50.892;3.992;2022-12-18T02:58:56;41.75;;;21.25;;
21591;SDS011;10958;50.892;3.992;2022-12-18T03:01:37;46.80;;;21.92;;
21591;SDS011;10958;50.892;3.992;2022-12-18T03:07:26;49.78;;;21.00;;
21591;SDS011;10958;50.892;3.992;2022-12-18T03:10:14;39.45;;;20.13;;
21591;SDS011;10958;50.892;3.992;2022-12-18T03:12:52;44.58;;;20.83;;
21591;SDS011;10958;50.892;3.992;2022-12-18T03:20:47;42.00;;;20.08;;
21591;SDS011;10958;50.892;3.992;2022-12-18T03:25:45;37.47;;;18.75;;
21591;SDS011;10958;50.892;3.992;2022-12-18T03:28:21;41.30;;;18.58;;
21591;SDS011;10958;50.892;3.992;2022-12-18T03:30:58;36.50;;;18.08;;
21591;SDS011;10958;50.892;3.992;2022-12-18T03:33:37;39.28;;;18.73;;
21591;SDS011;10958;50.892;3.992;2022-12-18T03:36:03;37.83;;;17.27;;
21591;SDS011;10958;50.892;3.992;2022-12-18T03:38:29;34.80;;;17.00;;
21591;SDS011;10958;50.892;3.992;2022-12-18T03:47:34;41.15;;;18.67;;
21591;SDS011;10958;50.892;3.992;2022-12-18T03:50:30;33.13;;;16.48;;
21591;SDS011;10958;50.892;3.992;2022-12-18T03:53:42;36.25;;;16.98;;
21591;SDS011;10958;50.892;3.992;2022-12-18T03:56:33;34.88;;;17.27;;
21591;SDS011;10958;50.892;3.992;2022-12-18T03:59:34;39.38;;;17.17;;
21591;SDS011;10958;50.892;3.992;2022-12-18T04:02:16;37.08;;;17.17;;
21591;SDS011;10958;50.892;3.992;2022-12-18T04:04:59;35.00;;;17.70;;
21591;SDS011;10958;50.892;3.992;2022-12-18T04:07:36;35.15;;;16.77;;
21591;SDS011;10958;50.892;3.992;2022-12-18T04:10:20;39.20;;;17.98;;
21591;SDS011;10958;50.892;3.992;2022-12-18T04:15:29;34.00;;;17.10;;
21591;SDS011;10958;50.892;3.992;2022-12-18T04:23:33;40.70;;;19.08;;
21591;SDS011;10958;50.892;3.992;2022-12-18T04:26:09;32.75;;;16.80;;
21591;SDS011;10958;50.892;3.992;2022-12-18T04:28:36;35.97;;;17.33;;
21591;SDS011;10958;50.892;3.992;2022-12-18T04:31:09;37.13;;;17.52;;
21591;SDS011;10958;50.892;3.992;2022-12-18T04:33:41;38.65;;;17.83;;
21591;SDS011;10958;50.892;3.992;2022-12-18T04:36:20;37.80;;;17.40;;
21591;SDS011;10958;50.892;3.992;2022-12-18T04:38:49;41.88;;;18.90;;
21591;SDS011;10958;50.892;3.992;2022-12-18T04:41:21;37.92;;;16.48;;
21591;SDS011;10958;50.892;3.992;2022-12-18T04:46:29;29.95;;;15.18;;
21591;SDS011;10958;50.892;3.992;2022-12-18T04:49:18;32.50;;;14.93;;
21591;SDS011;10958;50.892;3.992;2022-12-18T04:51:52;26.98;;;13.65;;
21591;SDS011;10958;50.892;3.992;2022-12-18T04:54:18;29.52;;;14.40;;
21591;SDS011;10958;50.892;3.992;2022-12-18T04:57:18;31.60;;;15.05;;
21591;SDS011;10958;50.892;3.992;2022-12-18T04:59:43;34.45;;;15.68;;
21591;SDS011;10958;50.892;3.992;2022-12-18T05:02:39;32.20;;;15.85;;
21591;SDS011;10958;50.892;3.992;2022-12-18T05:08:02;27.45;;;14.40;;
21591;SDS011;10958;50.892;3.992;2022-12-18T05:10:41;33.13;;;14.80;;
21591;SDS011;10958;50.892;3.992;2022-12-18T05:13:12;31.73;;;15.15;;
21591;SDS011;10958;50.892;3.992;2022-12-18T05:15:53;32.13;;;15.70;;
21591;SDS011;10958;50.892;3.992;2022-12-18T05:18:24;36.17;;;14.77;;
21591;SDS011;10958;50.892;3.992;2022-12-18T05:21:08;31.08;;;15.15;;
21591;SDS011;10958;50.892;3.992;2022-12-18T05:23:41;36.10;;;14.90;;
21591;SDS011;10958;50.892;3.992;2022-12-18T05:26:33;35.95;;;15.75;;
21591;SDS011;10958;50.892;3.992;2022-12-18T05:29:04;37.13;;;15.68;;
21591;SDS011;10958;50.892;3.992;2022-12-18T05:31:56;31.25;;;15.30;;
21591;SDS011;10958;50.892;3.992;2022-12-18T05:42:25;33.42;;;14.50;;
21591;SDS011;10958;50.892;3.992;2022-12-18T05:50:51;34.15;;;13.80;;
21591;SDS011;10958;50.892;3.992;2022-12-18T05:53:21;31.25;;;14.95;;
21591;SDS011;10958;50.892;3.992;2022-12-18T05:56:15;32.55;;;14.45;;
21591;SDS011;10958;50.892;3.992;2022-12-18T05:58:51;25.95;;;13.48;;
21591;SDS011;10958;50.892;3.992;2022-12-18T06:11:40;31.08;;;15.15;;
21591;SDS011;10958;50.892;3.992;2022-12-18T06:17:01;33.78;;;16.00;;
21591;SDS011;10958;50.892;3.992;2022-12-18T06:19:27;30.33;;;14.90;;
21591;SDS011;10958;50.892;3.992;2022-12-18T06:24:29;26.98;;;14.82;;
21591;SDS011;10958;50.892;3.992;2022-12-18T06:26:56;29.55;;;14.18;;
21591;SDS011;10958;50.892;3.992;2022-12-18T06:29:23;31.15;;;14.70;;
21591;SDS011;10958;50.892;3.992;2022-12-18T06:31:49;28.52;;;14.70;;
21591;SDS011;10958;50.892;3.992;2022-12-18T06:34:18;29.35;;;14.25;;
21591;SDS011;10958;50.892;3.992;2022-12-18T06:36:50;38.95;;;17.48;;
21591;SDS011;10958;50.892;3.992;2022-12-18T06:39:37;30.70;;;15.80;;
21591;SDS011;10958;50.892;3.992;2022-12-18T06:42:03;33.28;;;15.43;;
21591;SDS011;10958;50.892;3.992;2022-12-18T06:44:36;38.95;;;16.80;;
21591;SDS011;10958;50.892;3.992;2022-12-18T06:47:25;43.33;;;17.95;;
21591;SDS011;10958;50.892;3.992;2022-12-18T06:50:26;29.92;;;16.67;;
21591;SDS011;10958;50.892;3.992;2022-12-18T06:53:01;26.48;;;13.70;;
21591;SDS011;10958;50.892;3.992;2022-12-18T06:55:29;28.17;;;12.68;;
21591;SDS011;10958;50.892;3.992;2022-12-18T06:58:05;25.63;;;13.60;;
21591;SDS011;10958;50.892;3.992;2022-12-18T07:00:31;28.67;;;13.93;;
21591;SDS011;10958;50.892;3.992;2022-12-18T07:03:10;30.80;;;14.70;;
21591;SDS011;10958;50.892;3.992;2022-12-18T07:08:14;35.63;;;14.35;;
21591;SDS011;10958;50.892;3.992;2022-12-18T07:10:55;29.73;;;14.45;;
21591;SDS011;10958;50.892;3.992;2022-12-18T07:13:22;30.70;;;15.18;;
21591;SDS011;10958;50.892;3.992;2022-12-18T07:15:55;26.92;;;14.10;;
21591;SDS011;10958;50.892;3.992;2022-12-18T07:19:17;29.50;;;13.70;;
21591;SDS011;10958;50.892;3.992;2022-12-18T07:22:21;25.30;;;11.93;;
21591;SDS011;10958;50.892;3.992;2022-12-18T07:25:18;18.83;;;8.93;;
21591;SDS011;10958;50.892;3.992;2022-12-18T07:27:49;26.13;;;11.98;;
21591;SDS011;10958;50.892;3.992;2022-12-18T07:33:18;23.85;;;11.63;;
21591;SDS011;10958;50.892;3.992;2022-12-18T07:36:01;24.05;;;11.88;;
21591;SDS011;10958;50.892;3.992;2022-12-18T07:38:28;23.70;;;11.43;;
21591;SDS011;10958;50.892;3.992;2022-12-18T07:41:28;38.53;;;20.65;;
21591;SDS011;10958;50.892;3.992;2022-12-18T07:44:00;35.40;;;14.65;;
21591;SDS011;10958;50.892;3.992;2022-12-18T07:46:30;40.25;;;17.30;;
21591;SDS011;10958;50.892;3.992;2022-12-18T07:48:59;36.65;;;18.05;;
21591;SDS011;10958;50.892;3.992;2022-12-18T07:54:24;31.15;;;16.58;;
21591;SDS011;10958;50.892;3.992;2022-12-18T07:56:51;38.13;;;18.52;;
21591;SDS011;10958;50.892;3.992;2022-12-18T08:15:54;26.67;;;12.60;;
21591;SDS011;10958;50.892;3.992;2022-12-18T08:18:58;27.58;;;12.93;;
21591;SDS011;10958;50.892;3.992;2022-12-18T08:21:30;30.77;;;17.27;;
21591;SDS011;10958;50.892;3.992;2022-12-18T08:24:29;29.42;;;14.23;;
21591;SDS011;10958;50.892;3.992;2022-12-18T08:26:58;34.88;;;17.95;;
21591;SDS011;10958;50.892;3.992;2022-12-18T08:29:29;58.20;;;31.17;;
21591;SDS011;10958;50.892;3.992;2022-12-18T08:31:55;53.28;;;28.63;;
21591;SDS011;10958;50.892;3.992;2022-12-18T08:34:21;38.40;;;20.73;;
21591;SDS011;10958;50.892;3.992;2022-12-18T08:39:22;28.98;;;14.75;;
21591;SDS011;10958;50.892;3.992;2022-12-18T08:42:04;25.55;;;13.30;;
21591;SDS011;10958;50.892;3.992;2022-12-18T08:47:34;28.02;;;12.98;;
21591;SDS011;10958;50.892;3.992;2022-12-18T08:49:59;28.50;;;13.63;;
21591;SDS011;10958;50.892;3.992;2022-12-18T08:52:34;24.65;;;13.90;;
21591;SDS011;10958;50.892;3.992;2022-12-18T08:58:03;94.07;;;36.80;;
21591;SDS011;10958;50.892;3.992;2022-12-18T09:00:34;53.55;;;22.63;;
21591;SDS011;10958;50.892;3.992;2022-12-18T09:05:37;45.33;;;20.25;;
21591;SDS011;10958;50.892;3.992;2022-12-18T09:08:11;33.88;;;15.65;;
21591;SDS011;10958;50.892;3.992;2022-12-18T09:10:47;25.15;;;13.75;;
21591;SDS011;10958;50.892;3.992;2022-12-18T09:31:20;42.45;;;17.50;;
21591;SDS011;10958;50.892;3.992;2022-12-18T09:34:04;42.25;;;18.55;;
21591;SDS011;10958;50.892;3.992;2022-12-18T09:36:51;26.25;;;12.52;;
21591;SDS011;10958;50.892;3.992;2022-12-18T09:39:29;19.38;;;9.68;;
21591;SDS011;10958;50.892;3.992;2022-12-18T09:41:57;24.48;;;12.02;;
21591;SDS011;10958;50.892;3.992;2022-12-18T09:44:50;23.90;;;12.02;;
21591;SDS011;10958;50.892;3.992;2022-12-18T09:47:27;21.48;;;11.68;;
21591;SDS011;10958;50.892;3.992;2022-12-18T09:50:34;23.05;;;12.02;;
21591;SDS011;10958;50.892;3.992;2022-12-18T09:53:06;20.33;;;11.23;;
21591;SDS011;10958;50.892;3.992;2022-12-18T09:55:52;22.67;;;11.40;;
21591;SDS011;10958;50.892;3.992;2022-12-18T10:01:26;21.60;;;11.48;;
21591;SDS011;10958;50.892;3.992;2022-12-18T10:04:24;22.55;;;11.70;;
21591;SDS011;10958;50.892;3.992;2022-12-18T10:06:55;23.90;;;11.57;;
21591;SDS011;10958;50.892;3.992;2022-12-18T10:09:39;22.20;;;11.40;;
21591;SDS011;10958;50.892;3.992;2022-12-18T10:13:02;23.13;;;11.20;;
21591;SDS011;10958;50.892;3.992;2022-12-18T10:15:45;23.55;;;11.48;;
21591;SDS011;10958;50.892;3.992;2022-12-18T10:21:44;33.50;;;18.17;;
21591;SDS011;10958;50.892;3.992;2022-12-18T10:27:31;53.05;;;23.17;;
21591;SDS011;10958;50.892;3.992;2022-12-18T10:32:28;36.40;;;19.38;;
21591;SDS011;10958;50.892;3.992;2022-12-18T10:35:01;36.45;;;18.30;;
21591;SDS011;10958;50.892;3.992;2022-12-18T10:37:36;31.42;;;17.33;;
21591;SDS011;10958;50.892;3.992;2022-12-18T10:43:39;28.95;;;17.17;;
21591;SDS011;10958;50.892;3.992;2022-12-18T10:51:25;25.63;;;14.15;;
21591;SDS011;10958;50.892;3.992;2022-12-18T10:57:37;26.83;;;14.43;;
21591;SDS011;10958;50.892;3.992;2022-12-18T11:00:19;24.50;;;13.38;;
21591;SDS011;10958;50.892;3.992;2022-12-18T11:09:34;23.48;;;12.95;;
21591;SDS011;10958;50.892;3.992;2022-12-18T11:12:49;22.10;;;12.40;;
21591;SDS011;10958;50.892;3.992;2022-12-18T11:14:54;20.85;;;11.82;;
21591;SDS011;10958;50.892;3.992;2022-12-18T11:17:28;22.20;;;12.32;;
21591;SDS011;10958;50.892;3.992;2022-12-18T11:23:04;25.90;;;14.05;;
21591;SDS011;10958;50.892;3.992;2022-12-18T11:25:38;24.23;;;12.38;;
21591;SDS011;10958;50.892;3.992;2022-12-18T11:28:43;25.60;;;12.85;;
21591;SDS011;10958;50.892;3.992;2022-12-18T11:31:35;22.27;;;12.57;;
21591;SDS011;10958;50.892;3.992;2022-12-18T11:37:09;20.20;;;11.13;;
21591;SDS011;10958;50.892;3.992;2022-12-18T11:39:57;25.27;;;12.23;;
21591;SDS011;10958;50.892;3.992;2022-12-18T11:43:00;25.17;;;12.65;;
21591;SDS011;10958;50.892;3.992;2022-12-18T11:45:47;26.63;;;13.45;;
21591;SDS011;10958;50.892;3.992;2022-12-18T11:51:37;19.08;;;12.07;;
21591;SDS011;10958;50.892;3.992;2022-12-18T11:57:20;26.80;;;14.15;;
21591;SDS011;10958;50.892;3.992;2022-12-18T12:23:21;23.42;;;13.18;;
21591;SDS011;10958;50.892;3.992;2022-12-18T12:41:26;21.90;;;11.77;;
21591;SDS011;10958;50.892;3.992;2022-12-18T12:44:23;27.88;;;12.63;;
21591;SDS011;10958;50.892;3.992;2022-12-18T12:47:03;23.60;;;12.20;;
21591;SDS011;10958;50.892;3.992;2022-12-18T12:49:46;21.73;;;11.85;;
21591;SDS011;10958;50.892;3.992;2022-12-18T12:52:30;21.75;;;12.23;;
21591;SDS011;10958;50.892;3.992;2022-12-18T12:55:07;22.58;;;13.15;;
21591;SDS011;10958;50.892;3.992;2022-12-18T13:00:50;24.85;;;12.55;;
21591;SDS011;10958;50.892;3.992;2022-12-18T13:09:33;27.20;;;14.00;;
21591;SDS011;10958;50.892;3.992;2022-12-18T13:12:03;26.98;;;13.60;;
21591;SDS011;10958;50.892;3.992;2022-12-18T13:14:56;24.67;;;13.18;;
21591;SDS011;10958;50.892;3.992;2022-12-18T13:17:38;29.20;;;14.35;;
21591;SDS011;10958;50.892;3.992;2022-12-18T13:20:15;27.35;;;14.05;;
21591;SDS011;10958;50.892;3.992;2022-12-18T13:22:46;25.10;;;14.00;;
21591;SDS011;10958;50.892;3.992;2022-12-18T13:30:53;29.45;;;14.75;;
21591;SDS011;10958;50.892;3.992;2022-12-18T13:33:41;29.50;;;14.70;;
21591;SDS011;10958;50.892;3.992;2022-12-18T13:39:21;29.88;;;15.15;;
21591;SDS011;10958;50.892;3.992;2022-12-18T13:42:37;31.88;;;15.27;;
21591;SDS011;10958;50.892;3.992;2022-12-18T13:44:54;31.42;;;15.10;;
21591;SDS011;10958;50.892;3.992;2022-12-18T13:47:36;29.08;;;15.30;;
21591;SDS011;10958;50.892;3.992;2022-12-18T13:52:50;28.67;;;15.52;;
21591;SDS011;10958;50.892;3.992;2022-12-18T13:55:27;32.75;;;16.63;;
21591;SDS011;10958;50.892;3.992;2022-12-18T13:58:06;32.60;;;15.80;;
21591;SDS011;10958;50.892;3.992;2022-12-18T14:00:45;31.25;;;14.73;;
21591;SDS011;10958;50.892;3.992;2022-12-18T14:03:21;31.17;;;15.95;;
21591;SDS011;10958;50.892;3.992;2022-12-18T14:06:04;32.88;;;16.08;;
21591;SDS011;10958;50.892;3.992;2022-12-18T14:08:37;33.15;;;15.68;;
21591;SDS011;10958;50.892;3.992;2022-12-18T14:11:17;30.10;;;15.05;;
21591;SDS011;10958;50.892;3.992;2022-12-18T14:13:51;32.00;;;15.55;;
21591;SDS011;10958;50.892;3.992;2022-12-18T14:16:18;33.08;;;15.80;;
21591;SDS011;10958;50.892;3.992;2022-12-18T14:18:52;30.67;;;14.52;;
21591;SDS011;10958;50.892;3.992;2022-12-18T14:21:33;57.13;;;29.95;;
21591;SDS011;10958;50.892;3.992;2022-12-18T14:24:12;33.42;;;16.15;;
21591;SDS011;10958;50.892;3.992;2022-12-18T14:26:46;35.10;;;16.17;;
21591;SDS011;10958;50.892;3.992;2022-12-18T14:37:17;32.28;;;15.95;;
21591;SDS011;10958;50.892;3.992;2022-12-18T14:39:56;33.78;;;16.05;;
21591;SDS011;10958;50.892;3.992;2022-12-18T14:42:26;34.03;;;16.38;;
21591;SDS011;10958;50.892;3.992;2022-12-18T14:48:33;32.75;;;16.23;;
21591;SDS011;10958;50.892;3.992;2022-12-18T14:53:45;29.83;;;15.15;;
21591;SDS011;10958;50.892;3.992;2022-12-18T14:56:32;30.90;;;16.20;;
21591;SDS011;10958;50.892;3.992;2022-12-18T14:59:16;35.03;;;16.73;;
21591;SDS011;10958;50.892;3.992;2022-12-18T15:05:14;33.45;;;16.35;;
21591;SDS011;10958;50.892;3.992;2022-12-18T15:07:46;32.88;;;15.80;;
21591;SDS011;10958;50.892;3.992;2022-12-18T15:10:21;31.88;;;16.17;;
21591;SDS011;10958;50.892;3.992;2022-12-18T15:23:20;38.13;;;18.30;;
21591;SDS011;10958;50.892;3.992;2022-12-18T15:25:56;28.65;;;15.00;;
21591;SDS011;10958;50.892;3.992;2022-12-18T15:28:53;31.40;;;15.93;;
21591;SDS011;10958;50.892;3.992;2022-12-18T15:31:37;31.33;;;15.05;;
21591;SDS011;10958;50.892;3.992;2022-12-18T15:34:23;32.40;;;15.90;;
21591;SDS011;10958;50.892;3.992;2022-12-18T15:37:06;35.03;;;16.77;;
21591;SDS011;10958;50.892;3.992;2022-12-18T15:42:10;36.85;;;16.08;;
21591;SDS011;10958;50.892;3.992;2022-12-18T15:45:12;35.58;;;16.20;;
21591;SDS011;10958;50.892;3.992;2022-12-18T15:47:42;32.97;;;15.48;;
21591;SDS011;10958;50.892;3.992;2022-12-18T15:50:11;30.83;;;15.13;;
21591;SDS011;10958;50.892;3.992;2022-12-18T15:55:35;33.22;;;16.02;;
21591;SDS011;10958;50.892;3.992;2022-12-18T15:58:29;34.55;;;16.13;;
21591;SDS011;10958;50.892;3.992;2022-12-18T16:00:55;33.90;;;16.65;;
21591;SDS011;10958;50.892;3.992;2022-12-18T16:03:26;35.63;;;15.93;;
21591;SDS011;10958;50.892;3.992;2022-12-18T16:06:10;35.20;;;17.27;;
21591;SDS011;10958;50.892;3.992;2022-12-18T16:09:14;31.75;;;16.05;;
21591;SDS011;10958;50.892;3.992;2022-12-18T16:11:49;35.50;;;15.88;;
21591;SDS011;10958;50.892;3.992;2022-12-18T16:14:28;33.92;;;16.10;;
21591;SDS011;10958;50.892;3.992;2022-12-18T16:24:40;33.22;;;15.07;;
21591;SDS011;10958;50.892;3.992;2022-12-18T16:27:25;29.23;;;14.82;;
21591;SDS011;10958;50.892;3.992;2022-12-18T16:29:51;31.50;;;15.52;;
21591;SDS011;10958;50.892;3.992;2022-12-18T16:32:18;34.13;;;15.70;;
21591;SDS011;10958;50.892;3.992;2022-12-18T16:34:47;38.30;;;17.27;;
21591;SDS011;10958;50.892;3.992;2022-12-18T16:37:14;32.72;;;15.93;;
21591;SDS011;10958;50.892;3.992;2022-12-18T16:39:41;31.83;;;14.70;;
21591;SDS011;10958;50.892;3.992;2022-12-18T16:42:25;31.95;;;15.25;;
21591;SDS011;10958;50.892;3.992;2022-12-18T16:47:51;30.38;;;14.23;;
21591;SDS011;10958;50.892;3.992;2022-12-18T16:50:24;33.65;;;15.18;;
21591;SDS011;10958;50.892;3.992;2022-12-18T16:52:53;32.50;;;15.43;;
21591;SDS011;10958;50.892;3.992;2022-12-18T16:55:19;31.73;;;14.15;;
21591;SDS011;10958;50.892;3.992;2022-12-18T16:57:48;33.22;;;15.52;;
21591;SDS011;10958;50.892;3.992;2022-12-18T17:02:58;30.88;;;14.15;;
21591;SDS011;10958;50.892;3.992;2022-12-18T17:05:24;33.20;;;14.63;;
21591;SDS011;10958;50.892;3.992;2022-12-18T17:08:05;33.72;;;15.07;;
21591;SDS011;10958;50.892;3.992;2022-12-18T17:10:52;32.40;;;15.68;;
21591;SDS011;10958;50.892;3.992;2022-12-18T17:13:26;31.85;;;15.55;;
21591;SDS011;10958;50.892;3.992;2022-12-18T17:15:52;29.70;;;14.15;;
21591;SDS011;10958;50.892;3.992;2022-12-18T17:18:18;30.48;;;14.90;;
21591;SDS011;10958;50.892;3.992;2022-12-18T17:20:58;33.28;;;14.98;;
21591;SDS011;10958;50.892;3.992;2022-12-18T17:23:33;29.08;;;15.00;;
21591;SDS011;10958;50.892;3.992;2022-12-18T17:26:15;31.95;;;15.05;;
21591;SDS011;10958;50.892;3.992;2022-12-18T17:28:50;30.33;;;15.18;;
21591;SDS011;10958;50.892;3.992;2022-12-18T17:31:17;38.08;;;16.25;;
21591;SDS011;10958;50.892;3.992;2022-12-18T17:33:54;37.88;;;16.08;;
21591;SDS011;10958;50.892;3.992;2022-12-18T17:36:21;34.80;;;15.50;;
21591;SDS011;10958;50.892;3.992;2022-12-18T17:38:58;33.58;;;15.15;;
21591;SDS011;10958;50.892;3.992;2022-12-18T17:41:26;32.92;;;15.30;;
21591;SDS011;10958;50.892;3.992;2022-12-18T17:43:57;31.48;;;15.45;;
21591;SDS011;10958;50.892;3.992;2022-12-18T17:46:24;27.95;;;14.18;;
21591;SDS011;10958;50.892;3.992;2022-12-18T17:48:54;29.95;;;14.48;;
21591;SDS011;10958;50.892;3.992;2022-12-18T17:51:26;27.73;;;13.82;;
21591;SDS011;10958;50.892;3.992;2022-12-18T17:53:56;30.90;;;14.45;;
21591;SDS011;10958;50.892;3.992;2022-12-18T17:56:33;35.90;;;15.90;;
21591;SDS011;10958;50.892;3.992;2022-12-18T17:59:17;34.70;;;15.48;;
21591;SDS011;10958;50.892;3.992;2022-12-18T18:04:47;34.67;;;15.02;;
21591;SDS011;10958;50.892;3.992;2022-12-18T18:07:28;32.35;;;15.02;;
21591;SDS011;10958;50.892;3.992;2022-12-18T18:10:10;31.08;;;14.98;;
21591;SDS011;10958;50.892;3.992;2022-12-18T18:12:42;37.92;;;15.63;;
21591;SDS011;10958;50.892;3.992;2022-12-18T18:18:24;35.42;;;15.43;;
21591;SDS011;10958;50.892;3.992;2022-12-18T18:20:57;35.25;;;15.90;;
21591;SDS011;10958;50.892;3.992;2022-12-18T18:24:14;32.75;;;14.90;;
21591;SDS011;10958;50.892;3.992;2022-12-18T18:26:51;36.38;;;15.68;;
21591;SDS011;10958;50.892;3.992;2022-12-18T18:29:24;31.08;;;13.80;;
21591;SDS011;10958;50.892;3.992;2022-12-18T18:32:08;32.83;;;14.63;;
21591;SDS011;10958;50.892;3.992;2022-12-18T18:34:49;34.40;;;15.13;;
21591;SDS011;10958;50.892;3.992;2022-12-18T18:37:15;31.38;;;14.98;;
21591;SDS011;10958;50.892;3.992;2022-12-18T18:39:53;36.50;;;15.13;;
21591;SDS011;10958;50.892;3.992;2022-12-18T18:42:23;35.15;;;15.43;;
21591;SDS011;10958;50.892;3.992;2022-12-18T18:45:12;33.35;;;15.88;;
21591;SDS011;10958;50.892;3.992;2022-12-18T18:47:42;39.22;;;18.35;;
21591;SDS011;10958;50.892;3.992;2022-12-18T18:52:58;35.42;;;15.73;;
21591;SDS011;10958;50.892;3.992;2022-12-18T18:55:36;37.58;;;17.00;;
21591;SDS011;10958;50.892;3.992;2022-12-18T18:58:12;33.92;;;14.77;;
21591;SDS011;10958;50.892;3.992;2022-12-18T19:00:38;35.47;;;16.13;;
21591;SDS011;10958;50.892;3.992;2022-12-18T19:03:04;38.03;;;16.52;;
21591;SDS011;10958;50.892;3.992;2022-12-18T19:05:40;37.83;;;16.60;;
21591;SDS011;10958;50.892;3.992;2022-12-18T19:08:05;31.92;;;15.50;;
21591;SDS011;10958;50.892;3.992;2022-12-18T19:10:31;34.85;;;16.30;;
21591;SDS011;10958;50.892;3.992;2022-12-18T19:13:14;34.40;;;15.10;;
21591;SDS011;10958;50.892;3.992;2022-12-18T19:16:02;30.50;;;15.52;;
21591;SDS011;10958;50.892;3.992;2022-12-18T19:18:56;33.72;;;14.82;;
21591;SDS011;10958;50.892;3.992;2022-12-18T19:21:24;32.67;;;15.93;;
21591;SDS011;10958;50.892;3.992;2022-12-18T19:24:04;31.35;;;14.90;;
21591;SDS011;10958;50.892;3.992;2022-12-18T19:26:36;32.67;;;14.93;;
21591;SDS011;10958;50.892;3.992;2022-12-18T19:29:09;31.48;;;15.15;;
21591;SDS011;10958;50.892;3.992;2022-12-18T19:31:35;31.30;;;15.05;;
21591;SDS011;10958;50.892;3.992;2022-12-18T19:34:05;31.92;;;15.45;;
21591;SDS011;10958;50.892;3.992;2022-12-18T19:36:32;32.60;;;15.52;;
21591;SDS011;10958;50.892;3.992;2022-12-18T19:39:07;34.38;;;15.30;;
21591;SDS011;10958;50.892;3.992;2022-12-18T19:41:38;34.40;;;14.63;;
21591;SDS011;10958;50.892;3.992;2022-12-18T19:44:16;31.38;;;14.75;;
21591;SDS011;10958;50.892;3.992;2022-12-18T19:46:50;32.45;;;15.18;;
21591;SDS011;10958;50.892;3.992;2022-12-18T19:49:24;32.72;;;15.10;;
21591;SDS011;10958;50.892;3.992;2022-12-18T19:51:55;36.70;;;15.88;;
21591;SDS011;10958;50.892;3.992;2022-12-18T19:54:33;37.65;;;15.82;;
21591;SDS011;10958;50.892;3.992;2022-12-18T19:56:59;34.17;;;15.70;;
21591;SDS011;10958;50.892;3.992;2022-12-18T19:59:37;33.13;;;15.68;;
21591;SDS011;10958;50.892;3.992;2022-12-18T20:05:30;37.25;;;14.65;;
21591;SDS011;10958;50.892;3.992;2022-12-18T20:07:59;34.45;;;15.82;;
21591;SDS011;10958;50.892;3.992;2022-12-18T20:10:27;34.67;;;16.30;;
21591;SDS011;10958;50.892;3.992;2022-12-18T20:12:56;33.95;;;15.43;;
21591;SDS011;10958;50.892;3.992;2022-12-18T20:15:22;35.45;;;16.17;;
21591;SDS011;10958;50.892;3.992;2022-12-18T20:17:58;38.00;;;15.70;;
21591;SDS011;10958;50.892;3.992;2022-12-18T20:20:23;34.65;;;15.80;;
21591;SDS011;10958;50.892;3.992;2022-12-18T20:23:04;34.22;;;16.27;;
21591;SDS011;10958;50.892;3.992;2022-12-18T20:25:34;38.53;;;17.00;;
21591;SDS011;10958;50.892;3.992;2022-12-18T20:28:09;37.50;;;16.75;;
21591;SDS011;10958;50.892;3.992;2022-12-18T20:30:38;39.65;;;16.73;;
21591;SDS011;10958;50.892;3.992;2022-12-18T20:33:10;37.47;;;16.90;;
21591;SDS011;10958;50.892;3.992;2022-12-18T20:35:36;31.88;;;15.63;;
21591;SDS011;10958;50.892;3.992;2022-12-18T20:38:02;37.95;;;17.67;;
21591;SDS011;10958;50.892;3.992;2022-12-18T20:40:39;42.47;;;17.63;;
21591;SDS011;10958;50.892;3.992;2022-12-18T20:43:05;37.05;;;16.20;;
21591;SDS011;10958;50.892;3.992;2022-12-18T20:45:34;37.88;;;18.10;;
21591;SDS011;10958;50.892;3.992;2022-12-18T20:48:12;32.90;;;16.60;;
21591;SDS011;10958;50.892;3.992;2022-12-18T20:50:40;35.80;;;17.88;;
21591;SDS011;10958;50.892;3.992;2022-12-18T20:53:10;37.22;;;17.52;;
21591;SDS011;10958;50.892;3.992;2022-12-18T20:58:16;36.40;;;18.33;;